sensor_id;sensor_type;location;lat;lon;timestamp;pressure;altitude;pressure_sealevel;temperature;humidity
550;BME280;20066;48.764;9.176;2022-11-02T00:01:14;98824.06;;;12.98;65.48
550;BME280;20066;48.764;9.176;2022-11-02T00:03:46;98823.28;;;12.94;67.00
550;BME280;20066;48.764;9.176;2022-11-02T00:06:13;98833.47;;;12.38;68.61
550;BME280;20066;48.764;9.176;2022-11-02T00:08:41;98828.22;;;12.74;68.96
550;BME280;20066;48.764;9.176;2022-11-02T00:11:09;98836.25;;;12.67;68.88
550;BME280;20066;48.764;9.176;2022-11-02T00:13:38;98842.84;;;12.66;68.85
550;BME280;20066;48.764;9.176;2022-11-02T00:16:07;98841.25;;;12.54;68.79
550;BME280;20066;48.764;9.176;2022-11-02T00:18:38;98846.25;;;12.52;68.73
550;BME280;20066;48.764;9.176;2022-11-02T00:21:06;98830.38;;;12.36;70.12
550;BME280;20066;48.764;9.176;2022-11-02T00:23:33;98835.03;;;12.40;69.58
550;BME280;20066;48.764;9.176;2022-11-02T00:26:01;98832.41;;;12.68;68.48
550;BME280;20066;48.764;9.176;2022-11-02T00:28:29;98832.66;;;12.31;69.45
550;BME280;20066;48.764;9.176;2022-11-02T00:30:58;98838.50;;;11.75;71.75
550;BME280;20066;48.764;9.176;2022-11-02T00:33:26;98847.66;;;11.63;73.83
550;BME280;20066;48.764;9.176;2022-11-02T00:35:54;98842.56;;;11.54;73.18
550;BME280;20066;48.764;9.176;2022-11-02T00:38:22;98844.28;;;11.77;73.15
550;BME280;20066;48.764;9.176;2022-11-02T00:40:50;98840.56;;;11.95;72.15
550;BME280;20066;48.764;9.176;2022-11-02T00:43:17;98844.13;;;12.10;71.37
550;BME280;20066;48.764;9.176;2022-11-02T00:45:45;98842.50;;;11.95;72.05
550;BME280;20066;48.764;9.176;2022-11-02T00:48:14;98850.44;;;12.35;70.67
550;BME280;20066;48.764;9.176;2022-11-02T00:50:42;98847.22;;;12.16;71.09
550;BME280;20066;48.764;9.176;2022-11-02T00:53:09;98840.72;;;12.20;71.18
550;BME280;20066;48.764;9.176;2022-11-02T00:55:37;98843.09;;;12.36;70.37
550;BME280;20066;48.764;9.176;2022-11-02T00:58:05;98845.47;;;12.52;69.25
550;BME280;20066;48.764;9.176;2022-11-02T01:00:33;98853.94;;;12.43;70.64
550;BME280;20066;48.764;9.176;2022-11-02T01:03:01;98851.38;;;11.95;71.47
550;BME280;20066;48.764;9.176;2022-11-02T01:05:30;98856.31;;;11.86;72.14
550;BME280;20066;48.764;9.176;2022-11-02T01:07:58;98850.78;;;12.27;70.73
550;BME280;20066;48.764;9.176;2022-11-02T01:10:25;98852.19;;;12.03;71.23
550;BME280;20066;48.764;9.176;2022-11-02T01:12:53;98850.00;;;12.30;70.54
550;BME280;20066;48.764;9.176;2022-11-02T01:15:21;98849.38;;;12.61;69.14
550;BME280;20066;48.764;9.176;2022-11-02T01:17:49;98849.91;;;12.95;67.89
550;BME280;20066;48.764;9.176;2022-11-02T01:20:16;98851.09;;;13.40;66.42
550;BME280;20066;48.764;9.176;2022-11-02T01:22:45;98854.81;;;12.72;69.34
550;BME280;20066;48.764;9.176;2022-11-02T01:25:13;98846.47;;;13.23;67.22
550;BME280;20066;48.764;9.176;2022-11-02T01:27:41;98845.72;;;13.40;66.05
550;BME280;20066;48.764;9.176;2022-11-02T01:30:10;98835.66;;;13.23;66.72
550;BME280;20066;48.764;9.176;2022-11-02T01:32:37;98832.19;;;13.05;68.04
550;BME280;20066;48.764;9.176;2022-11-02T01:35:06;98831.28;;;12.69;69.35
550;BME280;20066;48.764;9.176;2022-11-02T01:37:33;98826.41;;;13.21;68.78
550;BME280;20066;48.764;9.176;2022-11-02T01:40:03;98837.09;;;12.74;70.70
550;BME280;20066;48.764;9.176;2022-11-02T01:42:31;98832.94;;;13.02;69.25
550;BME280;20066;48.764;9.176;2022-11-02T01:44:59;98837.59;;;13.19;68.68
550;BME280;20066;48.764;9.176;2022-11-02T01:47:28;98834.88;;;13.79;66.57
550;BME280;20066;48.764;9.176;2022-11-02T01:50:05;98829.88;;;13.53;67.18
550;BME280;20066;48.764;9.176;2022-11-02T01:52:35;98830.63;;;13.71;65.87
550;BME280;20066;48.764;9.176;2022-11-02T01:55:09;98827.16;;;13.88;64.67
550;BME280;20066;48.764;9.176;2022-11-02T01:57:39;98824.44;;;13.88;64.92
550;BME280;20066;48.764;9.176;2022-11-02T02:00:10;98823.28;;;14.04;64.68
550;BME280;20066;48.764;9.176;2022-11-02T02:02:42;98819.06;;;13.46;66.54
550;BME280;20066;48.764;9.176;2022-11-02T02:05:12;98811.34;;;13.66;66.46
550;BME280;20066;48.764;9.176;2022-11-02T02:07:40;98798.19;;;13.71;65.76
550;BME280;20066;48.764;9.176;2022-11-02T02:10:10;98795.50;;;13.64;67.03
550;BME280;20066;48.764;9.176;2022-11-02T02:12:39;98790.03;;;13.96;65.53
550;BME280;20066;48.764;9.176;2022-11-02T02:15:09;98781.19;;;13.78;65.91
550;BME280;20066;48.764;9.176;2022-11-02T02:17:42;98784.19;;;14.19;64.50
550;BME280;20066;48.764;9.176;2022-11-02T02:20:21;98779.63;;;13.77;65.66
550;BME280;20066;48.764;9.176;2022-11-02T02:23:23;98781.63;;;13.30;68.64
550;BME280;20066;48.764;9.176;2022-11-02T02:26:34;98778.06;;;13.90;66.12
550;BME280;20066;48.764;9.176;2022-11-02T02:29:08;98774.84;;;14.34;64.16
550;BME280;20066;48.764;9.176;2022-11-02T02:31:42;98782.28;;;14.09;64.79
550;BME280;20066;48.764;9.176;2022-11-02T02:34:14;98785.34;;;14.21;64.01
550;BME280;20066;48.764;9.176;2022-11-02T02:36:47;98777.97;;;14.29;64.07
550;BME280;20066;48.764;9.176;2022-11-02T02:39:20;98780.75;;;14.08;64.76
550;BME280;20066;48.764;9.176;2022-11-02T02:41:54;98771.44;;;14.19;64.63
550;BME280;20066;48.764;9.176;2022-11-02T02:44:28;98786.53;;;14.13;64.27
550;BME280;20066;48.764;9.176;2022-11-02T02:47:00;98788.06;;;14.21;64.38
550;BME280;20066;48.764;9.176;2022-11-02T02:49:33;98782.72;;;13.82;64.42
550;BME280;20066;48.764;9.176;2022-11-02T02:52:04;98784.22;;;14.08;64.46
550;BME280;20066;48.764;9.176;2022-11-02T02:54:35;98781.50;;;14.12;64.91
550;BME280;20066;48.764;9.176;2022-11-02T02:57:08;98776.53;;;14.03;65.27
550;BME280;20066;48.764;9.176;2022-11-02T02:59:41;98774.97;;;13.91;65.22
550;BME280;20066;48.764;9.176;2022-11-02T03:02:13;98773.75;;;14.21;63.88
550;BME280;20066;48.764;9.176;2022-11-02T03:04:43;98771.53;;;13.77;65.10
550;BME280;20066;48.764;9.176;2022-11-02T03:07:12;98763.69;;;14.25;64.02
550;BME280;20066;48.764;9.176;2022-11-02T03:09:44;98768.50;;;13.07;67.90
550;BME280;20066;48.764;9.176;2022-11-02T03:12:22;98764.97;;;13.74;65.37
550;BME280;20066;48.764;9.176;2022-11-02T03:15:05;98767.25;;;13.94;64.72
550;BME280;20066;48.764;9.176;2022-11-02T03:17:44;98768.78;;;13.91;64.20
550;BME280;20066;48.764;9.176;2022-11-02T03:20:19;98770.31;;;14.10;63.69
550;BME280;20066;48.764;9.176;2022-11-02T03:22:54;98771.13;;;13.89;64.61
550;BME280;20066;48.764;9.176;2022-11-02T03:25:28;98774.97;;;13.88;64.71
550;BME280;20066;48.764;9.176;2022-11-02T03:28:01;98775.41;;;13.69;65.89
550;BME280;20066;48.764;9.176;2022-11-02T03:30:40;98775.81;;;13.74;64.71
550;BME280;20066;48.764;9.176;2022-11-02T03:33:15;98772.59;;;14.15;63.28
550;BME280;20066;48.764;9.176;2022-11-02T03:35:49;98773.84;;;13.82;64.59
550;BME280;20066;48.764;9.176;2022-11-02T03:38:21;98783.78;;;14.27;62.78
550;BME280;20066;48.764;9.176;2022-11-02T03:40:53;98789.66;;;13.83;63.70
550;BME280;20066;48.764;9.176;2022-11-02T03:43:23;98792.63;;;14.35;62.41
550;BME280;20066;48.764;9.176;2022-11-02T03:45:54;98787.75;;;13.80;63.66
550;BME280;20066;48.764;9.176;2022-11-02T03:48:28;98786.16;;;13.94;63.67
550;BME280;20066;48.764;9.176;2022-11-02T03:50:59;98790.31;;;14.30;62.21
550;BME280;20066;48.764;9.176;2022-11-02T03:53:33;98786.59;;;13.71;63.52
550;BME280;20066;48.764;9.176;2022-11-02T03:56:07;98788.91;;;13.79;63.77
550;BME280;20066;48.764;9.176;2022-11-02T03:58:36;98795.91;;;13.66;64.24
550;BME280;20066;48.764;9.176;2022-11-02T04:01:06;98800.13;;;13.81;63.60
550;BME280;20066;48.764;9.176;2022-11-02T04:03:38;98806.84;;;14.53;61.79
550;BME280;20066;48.764;9.176;2022-11-02T04:06:07;98806.53;;;14.41;61.64
550;BME280;20066;48.764;9.176;2022-11-02T04:08:38;98804.25;;;14.28;62.12
550;BME280;20066;48.764;9.176;2022-11-02T04:11:06;98806.06;;;14.56;61.05
550;BME280;20066;48.764;9.176;2022-11-02T04:13:52;98793.50;;;14.07;63.10
550;BME280;20066;48.764;9.176;2022-11-02T04:16:39;98808.19;;;13.96;63.26
550;BME280;20066;48.764;9.176;2022-11-02T04:19:07;98813.19;;;14.18;62.18
550;BME280;20066;48.764;9.176;2022-11-02T04:21:53;98808.00;;;14.56;61.41
550;BME280;20066;48.764;9.176;2022-11-02T04:24:38;98817.44;;;14.09;62.98
550;BME280;20066;48.764;9.176;2022-11-02T04:27:24;98816.31;;;13.92;63.12
550;BME280;20066;48.764;9.176;2022-11-02T04:29:52;98810.06;;;14.23;62.62
550;BME280;20066;48.764;9.176;2022-11-02T04:32:21;98814.38;;;14.14;62.52
550;BME280;20066;48.764;9.176;2022-11-02T04:35:03;98810.53;;;13.83;62.75
550;BME280;20066;48.764;9.176;2022-11-02T04:37:37;98812.78;;;14.16;62.31
550;BME280;20066;48.764;9.176;2022-11-02T04:40:22;98811.66;;;14.00;62.47
550;BME280;20066;48.764;9.176;2022-11-02T04:42:49;98821.72;;;13.96;63.02
550;BME280;20066;48.764;9.176;2022-11-02T04:45:17;98819.31;;;14.33;62.29
550;BME280;20066;48.764;9.176;2022-11-02T04:47:47;98818.22;;;14.13;62.41
550;BME280;20066;48.764;9.176;2022-11-02T04:50:14;98830.63;;;13.68;63.67
550;BME280;20066;48.764;9.176;2022-11-02T04:52:42;98827.91;;;13.93;62.56
550;BME280;20066;48.764;9.176;2022-11-02T04:55:10;98832.94;;;13.69;64.00
550;BME280;20066;48.764;9.176;2022-11-02T04:57:38;98829.88;;;13.74;63.76
550;BME280;20066;48.764;9.176;2022-11-02T05:00:11;98827.53;;;14.05;62.73
550;BME280;20066;48.764;9.176;2022-11-02T05:02:39;98830.25;;;13.37;65.02
550;BME280;20066;48.764;9.176;2022-11-02T05:05:08;98827.91;;;13.00;65.69
550;BME280;20066;48.764;9.176;2022-11-02T05:07:37;98829.09;;;13.63;63.86
550;BME280;20066;48.764;9.176;2022-11-02T05:10:06;98840.66;;;13.21;64.84
550;BME280;20066;48.764;9.176;2022-11-02T05:12:34;98844.56;;;13.34;65.00
550;BME280;20066;48.764;9.176;2022-11-02T05:15:01;98840.31;;;13.58;64.40
550;BME280;20066;48.764;9.176;2022-11-02T05:17:30;98835.66;;;13.34;64.42
550;BME280;20066;48.764;9.176;2022-11-02T05:19:58;98832.84;;;12.81;66.00
550;BME280;20066;48.764;9.176;2022-11-02T05:22:27;98837.88;;;12.82;65.00
550;BME280;20066;48.764;9.176;2022-11-02T05:24:54;98839.53;;;13.50;64.11
550;BME280;20066;48.764;9.176;2022-11-02T05:27:22;98846.09;;;13.35;65.16
550;BME280;20066;48.764;9.176;2022-11-02T05:29:50;98840.69;;;13.35;64.73
550;BME280;20066;48.764;9.176;2022-11-02T05:32:18;98842.97;;;13.23;64.64
550;BME280;20066;48.764;9.176;2022-11-02T05:34:45;98854.47;;;12.81;65.11
550;BME280;20066;48.764;9.176;2022-11-02T05:37:13;98858.06;;;13.52;64.36
550;BME280;20066;48.764;9.176;2022-11-02T05:39:42;98859.97;;;13.87;62.90
550;BME280;20066;48.764;9.176;2022-11-02T05:42:15;98865.00;;;13.57;63.64
550;BME280;20066;48.764;9.176;2022-11-02T05:44:43;98859.59;;;13.32;64.42
550;BME280;20066;48.764;9.176;2022-11-02T05:47:11;98854.44;;;12.73;65.50
550;BME280;20066;48.764;9.176;2022-11-02T05:49:38;98854.19;;;13.28;64.10
550;BME280;20066;48.764;9.176;2022-11-02T05:52:06;98858.22;;;12.55;66.02
550;BME280;20066;48.764;9.176;2022-11-02T05:54:34;98859.16;;;13.01;65.12
550;BME280;20066;48.764;9.176;2022-11-02T05:57:03;98864.94;;;12.89;64.90
550;BME280;20066;48.764;9.176;2022-11-02T05:59:30;98864.50;;;12.87;65.71
550;BME280;20066;48.764;9.176;2022-11-02T06:01:58;98863.81;;;13.22;64.52
550;BME280;20066;48.764;9.176;2022-11-02T06:04:26;98867.31;;;13.86;62.81
550;BME280;20066;48.764;9.176;2022-11-02T06:06:54;98866.81;;;12.82;65.39
550;BME280;20066;48.764;9.176;2022-11-02T06:09:23;98864.16;;;12.92;66.01
550;BME280;20066;48.764;9.176;2022-11-02T06:11:51;98871.47;;;12.88;66.01
550;BME280;20066;48.764;9.176;2022-11-02T06:14:20;98875.63;;;12.75;65.61
550;BME280;20066;48.764;9.176;2022-11-02T06:16:47;98877.72;;;13.17;65.19
550;BME280;20066;48.764;9.176;2022-11-02T06:19:15;98880.38;;;13.06;65.25
550;BME280;20066;48.764;9.176;2022-11-02T06:21:43;98883.75;;;12.79;66.21
550;BME280;20066;48.764;9.176;2022-11-02T06:24:14;98880.84;;;13.33;64.75
550;BME280;20066;48.764;9.176;2022-11-02T06:26:42;98889.72;;;13.48;64.09
550;BME280;20066;48.764;9.176;2022-11-02T06:29:09;98895.91;;;13.77;62.82
550;BME280;20066;48.764;9.176;2022-11-02T06:31:38;98897.41;;;13.25;63.81
550;BME280;20066;48.764;9.176;2022-11-02T06:34:06;98898.13;;;13.07;65.51
550;BME280;20066;48.764;9.176;2022-11-02T06:36:34;98905.63;;;12.56;66.73
550;BME280;20066;48.764;9.176;2022-11-02T06:39:02;98899.94;;;12.79;66.99
550;BME280;20066;48.764;9.176;2022-11-02T06:41:29;98904.25;;;12.90;66.18
550;BME280;20066;48.764;9.176;2022-11-02T06:43:57;98908.41;;;12.70;67.43
550;BME280;20066;48.764;9.176;2022-11-02T06:46:25;98909.91;;;12.64;67.38
550;BME280;20066;48.764;9.176;2022-11-02T06:48:54;98917.28;;;12.70;66.47
550;BME280;20066;48.764;9.176;2022-11-02T06:51:27;98922.84;;;13.09;66.03
550;BME280;20066;48.764;9.176;2022-11-02T06:53:56;98922.91;;;13.38;64.93
550;BME280;20066;48.764;9.176;2022-11-02T06:56:24;98935.31;;;14.03;63.17
550;BME280;20066;48.764;9.176;2022-11-02T06:58:52;98937.91;;;14.74;60.30
550;BME280;20066;48.764;9.176;2022-11-02T07:01:19;98942.63;;;14.41;60.75
550;BME280;20066;48.764;9.176;2022-11-02T07:03:48;98946.50;;;14.29;61.92
550;BME280;20066;48.764;9.176;2022-11-02T07:06:17;98951.91;;;13.76;62.72
550;BME280;20066;48.764;9.176;2022-11-02T07:08:45;98953.81;;;14.47;61.50
550;BME280;20066;48.764;9.176;2022-11-02T07:11:13;98955.00;;;14.49;61.10
550;BME280;20066;48.764;9.176;2022-11-02T07:13:42;98963.28;;;15.19;59.88
550;BME280;20066;48.764;9.176;2022-11-02T07:16:10;98966.78;;;15.19;59.49
550;BME280;20066;48.764;9.176;2022-11-02T07:18:37;98976.31;;;15.45;59.15
550;BME280;20066;48.764;9.176;2022-11-02T07:21:05;98967.66;;;15.68;58.11
550;BME280;20066;48.764;9.176;2022-11-02T07:23:37;98975.38;;;15.73;58.39
550;BME280;20066;48.764;9.176;2022-11-02T07:26:05;98974.59;;;14.92;59.58
550;BME280;20066;48.764;9.176;2022-11-02T07:28:33;98970.22;;;15.23;59.85
550;BME280;20066;48.764;9.176;2022-11-02T07:31:02;98982.72;;;15.72;58.81
550;BME280;20066;48.764;9.176;2022-11-02T07:33:30;98988.44;;;15.85;58.71
550;BME280;20066;48.764;9.176;2022-11-02T07:36:01;98993.31;;;14.37;62.08
550;BME280;20066;48.764;9.176;2022-11-02T07:38:29;98992.72;;;15.10;60.19
550;BME280;20066;48.764;9.176;2022-11-02T07:40:58;98984.19;;;15.18;60.84
550;BME280;20066;48.764;9.176;2022-11-02T07:43:25;98987.03;;;15.63;59.33
550;BME280;20066;48.764;9.176;2022-11-02T07:45:54;98987.94;;;16.01;57.88
550;BME280;20066;48.764;9.176;2022-11-02T07:48:21;98992.97;;;16.02;58.60
550;BME280;20066;48.764;9.176;2022-11-02T07:50:49;98997.47;;;15.71;58.92
550;BME280;20066;48.764;9.176;2022-11-02T07:53:17;99000.06;;;15.20;60.00
550;BME280;20066;48.764;9.176;2022-11-02T07:55:44;98999.72;;;15.11;60.55
550;BME280;20066;48.764;9.176;2022-11-02T07:58:14;99003.53;;;15.27;59.85
550;BME280;20066;48.764;9.176;2022-11-02T08:00:41;99007.88;;;14.93;61.47
550;BME280;20066;48.764;9.176;2022-11-02T08:03:10;99002.91;;;14.66;61.58
550;BME280;20066;48.764;9.176;2022-11-02T08:05:40;99006.06;;;14.44;63.37
550;BME280;20066;48.764;9.176;2022-11-02T08:08:10;99002.69;;;15.41;59.69
550;BME280;20066;48.764;9.176;2022-11-02T08:10:39;99004.88;;;14.52;62.62
550;BME280;20066;48.764;9.176;2022-11-02T08:13:08;99007.22;;;14.32;63.26
550;BME280;20066;48.764;9.176;2022-11-02T08:15:37;99006.72;;;15.81;59.00
550;BME280;20066;48.764;9.176;2022-11-02T08:18:08;99011.81;;;16.27;57.12
550;BME280;20066;48.764;9.176;2022-11-02T08:20:36;99000.44;;;15.88;57.99
550;BME280;20066;48.764;9.176;2022-11-02T08:23:04;99009.50;;;15.67;58.72
550;BME280;20066;48.764;9.176;2022-11-02T08:25:35;99008.31;;;15.71;59.18
550;BME280;20066;48.764;9.176;2022-11-02T08:28:03;99010.69;;;16.21;57.11
550;BME280;20066;48.764;9.176;2022-11-02T08:30:32;99020.03;;;16.20;58.19
550;BME280;20066;48.764;9.176;2022-11-02T08:33:03;99013.06;;;16.60;56.18
550;BME280;20066;48.764;9.176;2022-11-02T08:35:32;99014.78;;;17.18;55.26
550;BME280;20066;48.764;9.176;2022-11-02T08:38:00;99010.72;;;17.00;55.11
550;BME280;20066;48.764;9.176;2022-11-02T08:40:29;99011.22;;;17.82;53.45
550;BME280;20066;48.764;9.176;2022-11-02T08:42:57;99013.63;;;17.77;53.16
550;BME280;20066;48.764;9.176;2022-11-02T08:45:25;99024.31;;;18.41;51.85
550;BME280;20066;48.764;9.176;2022-11-02T08:47:54;99010.81;;;17.84;52.50
550;BME280;20066;48.764;9.176;2022-11-02T08:50:25;99017.84;;;17.81;52.81
550;BME280;20066;48.764;9.176;2022-11-02T08:52:53;99024.13;;;18.05;52.78
550;BME280;20066;48.764;9.176;2022-11-02T08:55:21;99022.81;;;17.59;53.78
550;BME280;20066;48.764;9.176;2022-11-02T08:57:50;99021.78;;;16.41;56.28
550;BME280;20066;48.764;9.176;2022-11-02T09:00:19;99019.69;;;17.88;53.05
550;BME280;20066;48.764;9.176;2022-11-02T09:02:58;99009.97;;;17.87;52.54
550;BME280;20066;48.764;9.176;2022-11-02T09:05:28;99017.50;;;18.96;50.96
550;BME280;20066;48.764;9.176;2022-11-02T09:07:57;99018.28;;;18.30;51.58
550;BME280;20066;48.764;9.176;2022-11-02T09:10:26;99014.78;;;18.06;53.08
550;BME280;20066;48.764;9.176;2022-11-02T09:12:55;99004.94;;;16.94;55.02
550;BME280;20066;48.764;9.176;2022-11-02T09:15:22;99011.34;;;17.45;53.98
550;BME280;20066;48.764;9.176;2022-11-02T09:17:50;99018.19;;;17.26;54.88
550;BME280;20066;48.764;9.176;2022-11-02T09:20:19;99011.34;;;16.36;57.27
550;BME280;20066;48.764;9.176;2022-11-02T09:22:49;99015.69;;;17.05;56.01
550;BME280;20066;48.764;9.176;2022-11-02T09:25:17;99019.41;;;17.21;54.53
550;BME280;20066;48.764;9.176;2022-11-02T09:27:45;99022.72;;;17.36;54.41
550;BME280;20066;48.764;9.176;2022-11-02T09:30:20;99021.66;;;17.57;54.17
550;BME280;20066;48.764;9.176;2022-11-02T09:32:52;99013.09;;;17.58;54.23
550;BME280;20066;48.764;9.176;2022-11-02T09:35:20;99023.16;;;16.60;55.72
550;BME280;20066;48.764;9.176;2022-11-02T09:37:49;99019.00;;;17.23;54.52
550;BME280;20066;48.764;9.176;2022-11-02T09:40:20;99021.84;;;16.34;55.35
550;BME280;20066;48.764;9.176;2022-11-02T09:42:57;99026.59;;;16.23;55.71
550;BME280;20066;48.764;9.176;2022-11-02T09:45:30;99018.50;;;16.60;54.89
550;BME280;20066;48.764;9.176;2022-11-02T09:48:03;99030.56;;;16.55;54.76
550;BME280;20066;48.764;9.176;2022-11-02T09:50:55;99023.00;;;16.33;53.88
550;BME280;20066;48.764;9.176;2022-11-02T09:53:35;99033.50;;;16.72;53.94
550;BME280;20066;48.764;9.176;2022-11-02T09:56:06;99034.44;;;16.54;53.60
550;BME280;20066;48.764;9.176;2022-11-02T09:58:37;99036.69;;;16.63;53.32
550;BME280;20066;48.764;9.176;2022-11-02T10:01:20;99039.84;;;17.33;52.09
550;BME280;20066;48.764;9.176;2022-11-02T10:04:08;99045.19;;;17.70;50.85
550;BME280;20066;48.764;9.176;2022-11-02T10:06:44;99046.94;;;17.27;51.57
550;BME280;20066;48.764;9.176;2022-11-02T10:09:21;99051.03;;;17.05;52.14
550;BME280;20066;48.764;9.176;2022-11-02T10:11:58;99051.84;;;17.69;50.40
550;BME280;20066;48.764;9.176;2022-11-02T10:14:30;99047.03;;;17.16;51.32
550;BME280;20066;48.764;9.176;2022-11-02T10:17:05;99049.25;;;18.63;48.58
550;BME280;20066;48.764;9.176;2022-11-02T10:19:40;99046.03;;;17.67;49.62
550;BME280;20066;48.764;9.176;2022-11-02T10:22:13;99052.53;;;17.47;50.88
550;BME280;20066;48.764;9.176;2022-11-02T10:24:44;99048.72;;;17.98;49.41
550;BME280;20066;48.764;9.176;2022-11-02T10:27:16;99042.84;;;17.72;50.60
550;BME280;20066;48.764;9.176;2022-11-02T10:29:54;99035.94;;;17.38;49.41
550;BME280;20066;48.764;9.176;2022-11-02T10:32:24;99036.59;;;17.15;49.90
550;BME280;20066;48.764;9.176;2022-11-02T10:34:52;99038.25;;;18.23;48.17
550;BME280;20066;48.764;9.176;2022-11-02T10:37:40;99033.78;;;18.56;46.51
550;BME280;20066;48.764;9.176;2022-11-02T10:40:24;99035.59;;;17.62;48.59
550;BME280;20066;48.764;9.176;2022-11-02T10:43:03;99043.50;;;17.80;47.09
550;BME280;20066;48.764;9.176;2022-11-02T10:45:48;99023.00;;;17.15;49.37
550;BME280;20066;48.764;9.176;2022-11-02T10:48:26;99028.78;;;17.17;49.04
550;BME280;20066;48.764;9.176;2022-11-02T10:51:06;99029.22;;;17.72;48.35
550;BME280;20066;48.764;9.176;2022-11-02T10:53:37;99042.94;;;18.89;46.32
550;BME280;20066;48.764;9.176;2022-11-02T10:56:18;99031.75;;;17.87;47.91
550;BME280;20066;48.764;9.176;2022-11-02T10:58:52;99038.53;;;17.75;47.13
550;BME280;20066;48.764;9.176;2022-11-02T11:01:22;99037.28;;;17.22;48.84
550;BME280;20066;48.764;9.176;2022-11-02T11:03:56;99046.28;;;18.30;47.18
550;BME280;20066;48.764;9.176;2022-11-02T11:06:26;99035.41;;;18.30;46.52
550;BME280;20066;48.764;9.176;2022-11-02T11:08:59;99037.59;;;18.82;45.88
550;BME280;20066;48.764;9.176;2022-11-02T11:11:30;99035.78;;;18.05;47.40
550;BME280;20066;48.764;9.176;2022-11-02T11:14:02;99038.66;;;17.64;48.53
550;BME280;20066;48.764;9.176;2022-11-02T11:16:52;99035.56;;;18.20;47.75
550;BME280;20066;48.764;9.176;2022-11-02T11:19:22;99033.25;;;18.18;47.25
550;BME280;20066;48.764;9.176;2022-11-02T11:22:25;99034.78;;;18.19;46.90
550;BME280;20066;48.764;9.176;2022-11-02T11:25:18;99026.25;;;17.90;48.62
550;BME280;20066;48.764;9.176;2022-11-02T11:27:54;99020.84;;;17.87;47.56
550;BME280;20066;48.764;9.176;2022-11-02T11:30:25;99023.00;;;17.72;48.07
550;BME280;20066;48.764;9.176;2022-11-02T11:33:15;99015.59;;;17.76;47.99
550;BME280;20066;48.764;9.176;2022-11-02T11:35:48;99023.84;;;18.23;47.24
550;BME280;20066;48.764;9.176;2022-11-02T11:38:17;99014.06;;;17.71;48.01
550;BME280;20066;48.764;9.176;2022-11-02T11:40:49;99009.81;;;17.70;48.05
550;BME280;20066;48.764;9.176;2022-11-02T11:43:22;99023.53;;;17.90;47.64
550;BME280;20066;48.764;9.176;2022-11-02T11:45:54;99008.56;;;18.52;46.89
550;BME280;20066;48.764;9.176;2022-11-02T11:48:34;99013.00;;;18.42;46.68
550;BME280;20066;48.764;9.176;2022-11-02T11:51:20;99001.72;;;17.67;47.84
550;BME280;20066;48.764;9.176;2022-11-02T11:54:20;98991.44;;;17.51;47.80
550;BME280;20066;48.764;9.176;2022-11-02T11:56:49;98994.69;;;18.43;46.07
550;BME280;20066;48.764;9.176;2022-11-02T11:59:27;98993.19;;;19.24;44.10
550;BME280;20066;48.764;9.176;2022-11-02T12:01:58;98988.16;;;18.60;45.05
550;BME280;20066;48.764;9.176;2022-11-02T12:04:28;98983.84;;;18.82;45.01
550;BME280;20066;48.764;9.176;2022-11-02T12:07:20;98984.03;;;18.72;44.26
550;BME280;20066;48.764;9.176;2022-11-02T12:10:01;98987.66;;;17.99;45.40
550;BME280;20066;48.764;9.176;2022-11-02T12:12:46;98993.09;;;17.99;45.54
550;BME280;20066;48.764;9.176;2022-11-02T12:15:30;98982.59;;;17.70;44.70
550;BME280;20066;48.764;9.176;2022-11-02T12:18:12;98983.88;;;18.16;43.56
550;BME280;20066;48.764;9.176;2022-11-02T12:20:55;98975.38;;;18.57;43.15
550;BME280;20066;48.764;9.176;2022-11-02T12:24:00;98976.47;;;18.17;43.79
550;BME280;20066;48.764;9.176;2022-11-02T12:26:40;98961.09;;;18.06;44.09
550;BME280;20066;48.764;9.176;2022-11-02T12:29:25;98962.22;;;17.82;44.94
550;BME280;20066;48.764;9.176;2022-11-02T12:32:07;98964.69;;;17.73;44.23
550;BME280;20066;48.764;9.176;2022-11-02T12:35:02;98956.28;;;17.07;45.08
550;BME280;20066;48.764;9.176;2022-11-02T12:38:07;98951.00;;;17.53;44.77
550;BME280;20066;48.764;9.176;2022-11-02T12:40:44;98950.03;;;17.90;42.98
550;BME280;20066;48.764;9.176;2022-11-02T12:43:25;98953.16;;;17.08;44.00
550;BME280;20066;48.764;9.176;2022-11-02T12:46:01;98946.09;;;17.14;44.55
550;BME280;20066;48.764;9.176;2022-11-02T12:48:39;98951.75;;;17.81;43.25
550;BME280;20066;48.764;9.176;2022-11-02T12:51:11;98948.50;;;17.89;42.88
550;BME280;20066;48.764;9.176;2022-11-02T12:53:45;98947.22;;;18.21;41.74
550;BME280;20066;48.764;9.176;2022-11-02T12:56:19;98950.22;;;18.26;42.15
550;BME280;20066;48.764;9.176;2022-11-02T12:58:48;98949.50;;;18.45;42.13
550;BME280;20066;48.764;9.176;2022-11-02T13:01:21;98951.84;;;19.06;40.97
550;BME280;20066;48.764;9.176;2022-11-02T13:03:56;98938.91;;;18.08;41.69
550;BME280;20066;48.764;9.176;2022-11-02T13:06:31;98945.59;;;18.46;41.09
550;BME280;20066;48.764;9.176;2022-11-02T13:09:04;98931.84;;;18.54;40.86
550;BME280;20066;48.764;9.176;2022-11-02T13:11:36;98936.69;;;17.99;41.55
550;BME280;20066;48.764;9.176;2022-11-02T13:14:10;98941.22;;;17.83;42.77
550;BME280;20066;48.764;9.176;2022-11-02T13:16:46;98932.41;;;17.21;43.28
550;BME280;20066;48.764;9.176;2022-11-02T13:19:19;98939.44;;;17.96;41.42
550;BME280;20066;48.764;9.176;2022-11-02T13:21:51;98931.88;;;17.84;42.23
550;BME280;20066;48.764;9.176;2022-11-02T13:24:22;98926.00;;;17.35;43.01
550;BME280;20066;48.764;9.176;2022-11-02T13:27:01;98921.63;;;17.91;41.96
550;BME280;20066;48.764;9.176;2022-11-02T13:29:48;98928.34;;;17.60;42.36
550;BME280;20066;48.764;9.176;2022-11-02T13:32:22;98919.41;;;17.02;43.44
550;BME280;20066;48.764;9.176;2022-11-02T13:35:03;98925.19;;;17.88;42.39
550;BME280;20066;48.764;9.176;2022-11-02T13:37:36;98926.72;;;17.89;42.19
550;BME280;20066;48.764;9.176;2022-11-02T13:40:11;98923.00;;;18.03;41.80
550;BME280;20066;48.764;9.176;2022-11-02T13:43:10;98915.00;;;17.92;42.93
550;BME280;20066;48.764;9.176;2022-11-02T13:46:01;98920.16;;;18.10;42.87
550;BME280;20066;48.764;9.176;2022-11-02T13:48:39;98921.53;;;18.41;40.59
550;BME280;20066;48.764;9.176;2022-11-02T13:51:23;98922.31;;;18.42;41.07